Time;durP1;ratioP1;P1;durP2;ratioP2;P2;SDS_P1;SDS_P2;PMS_P1;PMS_P2;Temp;Humidity;BMP_temperature;BMP_pressure;BME280_temperature;BME280_humidity;BME280_pressure;Samples;Min_cycle;Max_cycle;Signal;HPM_P1;HPM_P2
2022/11/13 00:00:48;;;;;;;44.55;28.05;;;;;;;7.82;100.00;102810.69;5008105;28;20061;-71
2022/11/13 00:03:13;;;;;;;42.67;26.65;;;;;;;7.87;100.00;102804.59;5008408;28;20517;-70
2022/11/13 00:05:38;;;;;;;45.88;28.65;;;;;;;7.79;100.00;102802.78;5007990;28;20033;-72
2022/11/13 00:08:04;;;;;;;45.42;27.83;;;;;;;7.79;100.00;102801.88;5008697;28;20026;-72
2022/11/13 00:10:29;;;;;;;44.90;27.05;;;;;;;7.77;100.00;102801.88;5007890;28;20052;-72
2022/11/13 00:12:54;;;;;;;42.38;26.23;;;;;;;7.76;100.00;102791.34;5008356;28;20161;-66
2022/11/13 00:15:20;;;;;;;42.30;26.17;;;;;;;7.75;100.00;102789.59;5008229;28;20106;-70
2022/11/13 00:17:45;;;;;;;39.67;26.38;;;;;;;7.81;100.00;102780.06;5007903;28;20105;-72
2022/11/13 00:20:11;;;;;;;40.15;25.65;;;;;;;7.88;100.00;102787.97;5008204;28;20029;-68
2022/11/13 00:22:36;;;;;;;41.28;25.75;;;;;;;7.87;100.00;102783.59;5006764;28;20029;-72
2022/11/13 00:25:01;;;;;;;40.30;24.58;;;;;;;7.90;100.00;102775.75;5006718;28;20030;-70
2022/11/13 00:27:29;;;;;;;41.40;24.65;;;;;;;7.97;100.00;102770.56;5008309;28;20022;-72
2022/11/13 00:29:54;;;;;;;39.42;24.95;;;;;;;8.03;100.00;102763.59;5011121;28;20179;-69
2022/11/13 00:32:20;;;;;;;41.05;25.30;;;;;;;7.95;100.00;102755.66;5027844;28;20528;-71
2022/11/13 00:34:45;;;;;;;41.03;26.17;;;;;;;7.91;100.00;102756.50;5024194;28;20120;-71
2022/11/13 00:37:10;;;;;;;38.53;24.45;;;;;;;8.02;100.00;102760.09;5025254;28;20151;-70
2022/11/13 00:39:36;;;;;;;38.83;25.35;;;;;;;8.01;100.00;102766.19;5023046;28;20025;-70
2022/11/13 00:42:01;;;;;;;37.33;24.80;;;;;;;7.94;100.00;102762.66;5007475;28;20057;-69
2022/11/13 00:44:26;;;;;;;43.28;22.33;;;;;;;8.00;100.00;102753.94;5006589;28;20049;-69
2022/11/13 00:46:51;;;;;;;40.88;23.92;;;;;;;7.93;100.00;102757.41;5005290;28;20072;-70
2022/11/13 00:49:17;;;;;;;36.38;22.75;;;;;;;7.91;100.00;102743.38;5007397;28;20022;-70
2022/11/13 00:51:42;;;;;;;34.97;21.45;;;;;;;7.92;100.00;102750.41;5006397;28;20033;-70
2022/11/13 00:54:08;;;;;;;34.05;23.38;;;;;;;7.95;100.00;102742.53;5006487;28;20018;-67
2022/11/13 00:56:33;;;;;;;31.40;21.55;;;;;;;7.97;100.00;102732.91;5006754;28;20026;-68
2022/11/13 00:58:58;;;;;;;36.40;21.58;;;;;;;8.00;100.00;102726.84;5006819;28;20022;-70
2022/11/13 01:01:24;;;;;;;34.22;21.40;;;;;;;8.03;100.00;102727.72;5006961;28;20123;-69
2022/11/13 01:03:49;;;;;;;33.45;20.40;;;;;;;8.02;100.00;102728.59;5007414;28;20025;-70
2022/11/13 01:06:26;;;;;;;34.92;21.00;;;;;;;8.03;100.00;102724.19;5008988;28;20022;-72
2022/11/13 01:08:56;;;;;;;39.88;21.67;;;;;;;7.99;100.00;102718.06;5011336;28;20049;-70
2022/11/13 01:11:24;;;;;;;33.33;20.38;;;;;;;7.95;100.00;102729.41;5011799;28;20033;-70
2022/11/13 01:13:50;;;;;;;34.47;19.80;;;;;;;7.92;100.00;102726.78;5011756;28;20046;-70
2022/11/13 01:16:17;;;;;;;32.35;21.13;;;;;;;7.86;100.00;102727.59;5011004;28;20030;-69
2022/11/13 01:18:43;;;;;;;33.65;20.95;;;;;;;7.83;100.00;102723.19;5010930;28;20084;-70
2022/11/13 01:21:12;;;;;;;30.00;20.58;;;;;;;7.82;100.00;102726.69;5008380;28;20038;-70
2022/11/13 01:23:38;;;;;;;29.20;19.75;;;;;;;7.77;100.00;102723.13;5010413;28;20556;-70
2022/11/13 01:26:11;;;;;;;27.77;19.48;;;;;;;7.75;100.00;102716.13;5009837;28;20022;-71
2022/11/13 01:28:37;;;;;;;33.58;20.13;;;;;;;7.69;100.00;102720.47;5010742;28;20468;-71
2022/11/13 01:31:05;;;;;;;34.25;19.23;;;;;;;7.68;100.00;102704.72;5009870;28;20026;-70
2022/11/13 01:33:30;;;;;;;31.60;19.58;;;;;;;7.70;100.00;102722.22;5008702;28;20030;-70
2022/11/13 01:36:03;;;;;;;30.60;20.60;;;;;;;7.70;100.00;102713.47;5009118;28;20030;-70
2022/11/13 01:38:29;;;;;;;27.25;19.02;;;;;;;7.71;100.00;102705.59;5010196;28;20032;-69
2022/11/13 01:40:54;;;;;;;33.00;18.92;;;;;;;7.66;100.00;102695.94;5010595;28;20108;-66
2022/11/13 01:43:34;;;;;;;31.25;18.63;;;;;;;7.68;100.00;102700.31;5010997;28;20021;-71
2022/11/13 01:46:14;;;;;;;32.45;18.73;;;;;;;7.61;100.00;102698.50;5009170;28;20038;-67
2022/11/13 01:48:46;;;;;;;31.35;18.27;;;;;;;7.58;100.00;102703.72;5010189;28;20038;-69
2022/11/13 01:51:15;;;;;;;30.85;19.10;;;;;;;7.58;100.00;102709.88;5008155;28;20049;-70
2022/11/13 01:53:41;;;;;;;;;;;;;;;7.54;100.00;102702.84;5010973;28;20110;-67
2022/11/13 01:56:07;;;;;;;28.15;16.35;;;;;;;7.49;100.00;102703.69;5008900;28;20014;-69
2022/11/13 01:58:32;;;;;;;24.50;17.35;;;;;;;7.45;100.00;102702.75;5008696;28;20029;-70
2022/11/13 02:00:58;;;;;;;28.52;17.45;;;;;;;7.48;100.00;102702.78;5008803;28;20080;-67
2022/11/13 02:03:23;;;;;;;27.00;17.33;;;;;;;7.54;100.00;102707.19;5083478;23;20026;-70
2022/11/13 02:05:48;;;;;;;26.55;18.05;;;;;;;7.53;100.00;102705.47;5008439;28;20450;-70
2022/11/13 02:08:14;;;;;;;26.52;17.02;;;;;;;7.51;100.00;102705.44;5008946;28;20870;-70
2022/11/13 02:10:39;;;;;;;28.55;16.65;;;;;;;7.47;100.00;102706.28;5024117;28;20034;-67
2022/11/13 02:13:05;;;;;;;28.42;17.23;;;;;;;7.40;100.00;102701.81;5010542;28;20033;-70
2022/11/13 02:15:32;;;;;;;24.75;15.77;;;;;;;7.31;100.00;102695.63;5008624;28;20523;-70
2022/11/13 02:17:58;;;;;;;25.58;17.52;;;;;;;7.30;100.00;102700.84;5008305;28;20129;-71
2022/11/13 02:20:32;;;;;;;27.75;17.10;;;;;;;7.24;100.00;102688.56;5008820;28;20026;-70
2022/11/13 02:23:09;;;;;;;28.83;18.02;;;;;;;7.21;100.00;102688.53;4972745;28;20518;-70
2022/11/13 02:25:35;;;;;;;26.73;16.77;;;;;;;7.17;100.00;102692.00;4990220;28;20107;-70
2022/11/13 02:28:00;;;;;;;27.17;16.75;;;;;;;7.13;100.00;102685.84;4990009;28;20037;-71
2022/11/13 02:30:29;;;;;;;27.95;17.42;;;;;;;7.14;100.00;102689.34;4990443;28;20034;-66
2022/11/13 02:32:55;;;;;;;31.15;19.25;;;;;;;7.08;100.00;102677.91;4990286;28;20081;-65
2022/11/13 02:35:32;;;;;;;35.28;19.67;;;;;;;7.04;100.00;102683.09;4988522;28;20353;-65
2022/11/13 02:38:01;;;;;;;30.10;19.25;;;;;;;6.94;100.00;102675.16;4996930;28;20036;-70
2022/11/13 02:40:27;;;;;;;28.88;18.13;;;;;;;6.89;100.00;102676.84;5012869;28;20065;-69
2022/11/13 02:42:52;;;;;;;27.35;17.92;;;;;;;6.85;100.00;102668.94;5009171;28;20400;-70
2022/11/13 02:45:18;;;;;;;25.92;17.38;;;;;;;6.85;100.00;102677.69;5008874;28;20076;-67
2022/11/13 02:47:43;;;;;;;32.88;20.30;;;;;;;6.87;100.00;102677.69;5009198;28;20101;-71
2022/11/13 02:50:09;;;;;;;27.95;18.92;;;;;;;6.88;100.00;102676.81;5007397;28;20025;-72
2022/11/13 02:52:35;;;;;;;28.63;18.40;;;;;;;6.86;100.00;102678.56;5007487;28;20416;-68
2022/11/13 02:55:00;;;;;;;24.92;16.45;;;;;;;6.81;100.00;102674.13;5009143;28;20021;-72
2022/11/13 02:57:26;;;;;;;29.17;17.77;;;;;;;6.78;100.00;102671.50;5008082;28;20164;-70
2022/11/13 02:59:51;;;;;;;28.45;17.30;;;;;;;6.76;100.00;102675.84;5009194;28;20468;-72
2022/11/13 03:02:16;;;;;;;30.67;17.20;;;;;;;6.76;100.00;102674.94;5008439;28;20460;-72
2022/11/13 03:04:42;;;;;;;29.25;17.65;;;;;;;6.73;100.00;102670.56;5007832;28;20033;-69
2022/11/13 03:07:07;;;;;;;29.13;18.05;;;;;;;6.71;100.00;102667.03;4990833;28;20036;-72
2022/11/13 03:09:32;;;;;;;31.77;18.85;;;;;;;6.72;100.00;102660.06;5008937;28;20050;-73
2022/11/13 03:11:58;;;;;;;27.85;18.17;;;;;;;6.70;100.00;102657.41;5008568;28;20100;-72
2022/11/13 03:14:23;;;;;;;23.35;16.33;;;;;;;6.74;100.00;102659.19;5009384;28;20026;-72
2022/11/13 03:16:48;;;;;;;25.40;17.60;;;;;;;6.80;100.00;102646.19;5007420;28;20022;-71
2022/11/13 03:19:14;;;;;;;31.30;18.98;;;;;;;6.87;100.00;102646.25;5008367;28;20034;-68
2022/11/13 03:21:39;;;;;;;28.00;17.67;;;;;;;6.91;100.00;102645.41;5007471;28;20053;-71
2022/11/13 03:24:04;;;;;;;30.65;18.15;;;;;;;6.92;100.00;102637.56;5008382;28;20457;-71
2022/11/13 03:26:30;;;;;;;28.95;17.27;;;;;;;6.97;100.00;102636.72;5008692;28;20125;-71
2022/11/13 03:28:55;;;;;;;28.77;16.98;;;;;;;7.01;100.00;102628.91;5007837;28;20030;-71
2022/11/13 03:31:21;;;;;;;26.83;17.13;;;;;;;7.04;100.00;102628.94;5008629;28;20377;-67
2022/11/13 03:33:46;;;;;;;25.60;16.48;;;;;;;7.02;100.00;102635.94;5007336;28;20022;-70
2022/11/13 03:36:12;;;;;;;28.05;16.92;;;;;;;7.07;100.00;102641.19;5007785;28;20447;-69
2022/11/13 03:38:37;;;;;;;21.90;14.38;;;;;;;7.10;100.00;102632.50;5008052;28;20157;-69
2022/11/13 03:41:02;;;;;;;30.52;16.35;;;;;;;7.09;100.00;102644.72;5006890;28;20022;-68
2022/11/13 03:43:28;;;;;;;29.70;16.80;;;;;;;7.10;100.00;102637.75;5008460;28;20030;-70
2022/11/13 03:45:53;;;;;;;25.00;16.35;;;;;;;7.14;100.00;102642.16;5008206;28;20376;-68
2022/11/13 03:48:18;;;;;;;28.17;16.98;;;;;;;7.14;100.00;102639.53;5010332;28;20030;-70
2022/11/13 03:50:46;;;;;;;25.75;16.35;;;;;;;7.06;100.00;102635.09;5009679;28;20113;-68
2022/11/13 03:53:12;;;;;;;28.60;16.67;;;;;;;7.06;100.00;102631.59;5008932;28;20088;-68
2022/11/13 03:55:38;;;;;;;26.23;16.67;;;;;;;7.00;100.00;102634.16;5007072;28;20025;-71
2022/11/13 03:58:03;;;;;;;23.50;14.80;;;;;;;6.96;100.00;102641.13;5008122;28;20069;-71
2022/11/13 04:00:29;;;;;;;23.27;15.13;;;;;;;6.88;100.00;102640.13;5020383;28;20064;-69
2022/11/13 04:02:54;;;;;;;23.23;14.52;;;;;;;6.80;100.00;102640.03;5028524;28;20607;-67
2022/11/13 04:05:20;;;;;;;27.58;14.45;;;;;;;6.74;100.00;102634.75;5026379;28;20063;-71
2022/11/13 04:07:45;;;;;;;22.88;15.10;;;;;;;6.74;100.00;102635.63;5027661;28;20112;-69
2022/11/13 04:10:11;;;;;;;24.33;13.75;;;;;;;6.69;100.00;102635.56;5026847;28;20045;-72
2022/11/13 04:12:36;;;;;;;24.27;14.02;;;;;;;6.64;100.00;102633.75;5029243;28;20139;-72
2022/11/13 04:15:01;;;;;;;22.90;15.48;;;;;;;6.56;100.00;102631.03;5025076;28;20033;-71
2022/11/13 04:17:27;;;;;;;29.35;14.70;;;;;;;6.51;100.00;102628.41;5028266;28;20021;-68
2022/11/13 04:19:52;;;;;;;23.10;14.35;;;;;;;6.51;100.00;102617.94;5028505;28;20368;-72
2022/11/13 04:22:17;;;;;;;26.88;16.75;;;;;;;6.54;100.00;102620.56;5028730;28;20032;-71
2022/11/13 04:24:43;;;;;;;29.33;16.63;;;;;;;6.49;100.00;102619.63;5028749;28;20451;-71
2022/11/13 04:27:08;;;;;;;27.05;16.50;;;;;;;6.56;100.00;102617.94;5026328;28;20631;-69
2022/11/13 04:29:33;;;;;;;31.83;16.67;;;;;;;6.57;100.00;102622.34;5028161;28;20104;-70
2022/11/13 04:31:59;;;;;;;24.27;15.75;;;;;;;6.61;100.00;102628.47;5027640;28;20045;-70
2022/11/13 04:34:24;;;;;;;23.50;15.45;;;;;;;6.64;100.00;102615.44;5013365;28;20033;-68
2022/11/13 04:36:49;;;;;;;23.40;15.57;;;;;;;6.65;100.00;102614.59;5024766;28;20057;-67
2022/11/13 04:39:14;;;;;;;25.42;14.82;;;;;;;6.66;100.00;102611.09;5025593;28;20556;-68
2022/11/13 04:44:24;;;;;;;24.98;15.73;;;;;;;6.69;100.00;102609.38;5026299;28;20110;-71
2022/11/13 04:46:49;;;;;;;25.48;15.15;;;;;;;6.73;100.00;102602.44;5027558;28;20017;-67
2022/11/13 04:49:14;;;;;;;27.08;15.73;;;;;;;6.77;100.00;102593.75;5027305;28;20034;-71
2022/11/13 04:51:40;;;;;;;23.48;16.35;;;;;;;6.74;100.00;102605.94;5028051;28;20097;-71
2022/11/13 04:54:05;;;;;;;27.85;16.63;;;;;;;6.74;100.00;102608.56;5027033;28;20112;-70
2022/11/13 04:56:30;;;;;;;25.35;16.27;;;;;;;6.69;100.00;102608.50;5018495;28;20068;-71
2022/11/13 04:58:56;;;;;;;22.20;14.68;;;;;;;6.68;100.00;102607.63;5007891;28;20033;-71
2022/11/13 05:01:21;;;;;;;24.02;14.88;;;;;;;6.63;100.00;102608.44;5007469;28;20026;-71
2022/11/13 05:03:46;;;;;;;26.33;14.75;;;;;;;6.57;100.00;102602.25;5006828;28;20077;-72
2022/11/13 05:06:12;;;;;;;24.63;13.80;;;;;;;6.50;100.00;102605.66;5007725;28;20029;-72
2022/11/13 05:08:38;;;;;;;23.58;13.82;;;;;;;6.41;100.00;102600.34;5006964;28;20041;-70
2022/11/13 05:11:03;;;;;;;25.70;14.07;;;;;;;6.33;100.00;102597.63;5006593;28;20026;-70
2022/11/13 05:13:30;;;;;;;21.48;14.07;;;;;;;6.30;100.00;102598.44;5007736;28;20033;-69
2022/11/13 05:16:04;;;;;;;20.13;13.93;;;;;;;6.29;100.00;102591.47;5006619;28;20022;-70
2022/11/13 05:18:29;;;;;;;21.02;14.25;;;;;;;6.26;100.00;102596.66;5017790;28;20523;-70
2022/11/13 05:20:55;;;;;;;25.00;13.98;;;;;;;6.28;100.00;102579.25;5026906;28;20113;-67
2022/11/13 05:23:20;;;;;;;22.48;15.00;;;;;;;6.25;100.00;102584.44;5026204;28;20113;-69
2022/11/13 05:25:45;;;;;;;22.58;15.30;;;;;;;6.20;100.00;102586.09;5027913;28;20468;-68
2022/11/13 05:28:11;;;;;;;25.27;14.25;;;;;;;6.17;100.00;102580.84;5028029;28;20534;-71
2022/11/13 05:30:36;;;;;;;20.73;13.90;;;;;;;6.12;100.00;102582.53;5026419;28;20032;-70
2022/11/13 05:33:01;;;;;;;20.35;13.27;;;;;;;6.09;100.00;102572.91;5027824;28;20041;-67
2022/11/13 05:35:27;;;;;;;21.02;14.02;;;;;;;6.09;100.00;102566.78;5027201;28;20028;-70
2022/11/13 05:37:52;;;;;;;23.25;14.93;;;;;;;6.12;100.00;102558.97;5027322;28;20082;-70
2022/11/13 05:40:17;;;;;;;20.25;13.88;;;;;;;6.07;100.00;102559.78;5008174;28;20038;-71
2022/11/13 05:42:43;;;;;;;24.50;13.95;;;;;;;6.05;100.00;102561.50;5008133;28;20029;-70
2022/11/13 05:45:09;;;;;;;23.77;14.20;;;;;;;6.07;100.00;102562.41;5008966;28;20030;-72
2022/11/13 05:47:34;;;;;;;22.85;14.00;;;;;;;6.09;100.00;102566.78;5009205;28;20486;-72
2022/11/13 05:49:59;;;;;;;26.73;15.25;;;;;;;6.08;100.00;102555.41;5007640;28;20514;-72
2022/11/13 05:52:25;;;;;;;26.52;15.15;;;;;;;6.10;100.00;102545.84;5010887;28;20022;-68
2022/11/13 05:54:50;;;;;;;23.48;14.65;;;;;;;6.10;100.00;102539.72;5012660;28;20033;-71
2022/11/13 05:57:15;;;;;;;23.40;13.65;;;;;;;6.04;100.00;102543.16;5012683;28;20141;-71
2022/11/13 05:59:41;;;;;;;22.67;14.40;;;;;;;5.99;100.00;102539.59;5010487;28;20345;-71
2022/11/13 06:02:06;;;;;;;26.80;13.88;;;;;;;5.95;100.00;102543.88;5011098;28;20030;-70
2022/11/13 06:04:31;;;;;;;22.30;14.35;;;;;;;5.96;100.00;102540.41;5010342;28;20184;-71
2022/11/13 06:06:57;;;;;;;21.70;13.57;;;;;;;5.99;100.00;102532.59;5011449;28;20034;-71
2022/11/13 06:09:22;;;;;;;24.55;14.55;;;;;;;6.00;100.00;102526.53;5011663;28;20026;-66
2022/11/13 06:11:48;;;;;;;22.17;14.27;;;;;;;6.00;100.00;102533.47;5011396;28;20164;-71
2022/11/13 06:14:13;;;;;;;24.00;14.15;;;;;;;5.99;100.00;102537.81;5010414;28;20647;-71
2022/11/13 06:16:39;;;;;;;24.25;13.07;;;;;;;5.98;100.00;102528.22;5010681;28;20034;-71
2022/11/13 06:19:07;;;;;;;19.67;13.32;;;;;;;6.01;100.00;102528.28;5010063;28;20029;-70
2022/11/13 06:21:34;;;;;;;23.00;13.97;;;;;;;6.00;100.00;102521.28;5002026;28;20034;-71
2022/11/13 06:24:00;;;;;;;19.75;14.20;;;;;;;6.02;100.00;102518.69;5010587;28;20032;-71
2022/11/13 06:26:31;;;;;;;22.23;13.60;;;;;;;6.00;100.00;102515.16;5008853;28;20112;-72
2022/11/13 06:28:58;;;;;;;20.67;13.65;;;;;;;6.00;100.00;102523.00;5008049;28;20045;-74
2022/11/13 06:31:26;;;;;;;25.35;15.18;;;;;;;6.03;100.00;102520.44;5009109;28;20033;-73
2022/11/13 06:33:52;;;;;;;24.13;14.43;;;;;;;6.03;100.00;102516.09;5006963;28;20131;-74
2022/11/13 06:36:23;;;;;;;23.42;14.70;;;;;;;6.09;100.00;102522.28;5007961;28;20476;-68
2022/11/13 06:38:48;;;;;;;25.60;16.75;;;;;;;6.18;100.00;102507.53;5010002;28;20400;-72
2022/11/13 06:41:17;;;;;;;24.10;16.27;;;;;;;6.25;100.00;102512.88;5009898;28;20045;-71
2022/11/13 06:43:43;;;;;;;29.50;16.92;;;;;;;6.31;100.00;102513.81;5008946;28;20495;-69
2022/11/13 06:46:23;;;;;;;27.33;16.77;;;;;;;6.39;100.00;102520.88;5008993;28;20022;-66
2022/11/13 06:48:49;;;;;;;25.27;15.85;;;;;;;6.41;100.00;102521.78;5007914;28;20029;-68
2022/11/13 06:51:22;;;;;;;26.38;16.30;;;;;;;6.44;100.00;102519.16;5006870;28;20029;-71
2022/11/13 06:53:48;;;;;;;26.27;15.23;;;;;;;6.44;100.00;102520.06;5002741;28;20440;-69
2022/11/13 06:56:14;;;;;;;27.00;15.75;;;;;;;6.53;100.00;102521.91;5009872;28;20017;-71
2022/11/13 06:58:40;;;;;;;25.08;16.52;;;;;;;6.53;100.00;102516.66;5009070;28;20030;-72
2022/11/13 07:01:07;;;;;;;26.15;15.10;;;;;;;6.56;100.00;102513.19;5008952;28;20354;-72
2022/11/13 07:03:33;;;;;;;22.17;15.07;;;;;;;6.54;100.00;102523.63;5007690;28;20021;-70
2022/11/13 07:06:03;;;;;;;23.55;15.50;;;;;;;6.56;100.00;102519.31;5007558;28;20025;-71
2022/11/13 07:08:28;;;;;;;23.40;15.63;;;;;;;6.46;100.00;102514.84;5005970;28;20033;-69
2022/11/13 07:10:55;;;;;;;26.17;15.75;;;;;;;6.50;100.00;102515.75;5007415;28;20014;-72
2022/11/13 07:13:21;;;;;;;25.55;15.70;;;;;;;6.49;100.00;102521.84;5008450;28;20495;-69
2022/11/13 07:15:46;;;;;;;26.60;15.73;;;;;;;6.49;100.00;102509.63;5008147;28;20105;-72
2022/11/13 07:18:12;;;;;;;23.73;14.70;;;;;;;6.50;100.00;102513.16;5007010;28;20109;-74
2022/11/13 07:20:37;;;;;;;24.75;15.18;;;;;;;6.51;100.00;102507.94;5006228;28;20036;-72
2022/11/13 07:23:03;;;;;;;23.58;15.15;;;;;;;6.53;100.00;102498.31;5007525;28;20029;-75
2022/11/13 07:25:29;;;;;;;23.75;14.55;;;;;;;6.55;100.00;102499.22;5007330;28;20111;-75
2022/11/13 07:27:54;;;;;;;25.00;15.88;;;;;;;6.57;100.00;102491.38;5007100;28;20021;-68
2022/11/13 07:30:20;;;;;;;19.98;14.57;;;;;;;6.58;100.00;102493.13;5006817;28;20032;-74
2022/11/13 07:32:45;;;;;;;27.73;15.70;;;;;;;6.64;100.00;102492.31;5007281;28;20053;-72
2022/11/13 07:35:11;;;;;;;25.58;15.90;;;;;;;6.66;100.00;102485.34;5006046;28;20030;-70
2022/11/13 07:37:36;;;;;;;28.08;16.30;;;;;;;6.74;100.00;102490.66;5006548;28;20022;-71
2022/11/13 07:40:03;;;;;;;24.85;15.68;;;;;;;6.83;100.00;102489.00;5006890;28;20117;-71
2022/11/13 07:42:28;;;;;;;29.92;15.45;;;;;;;6.91;100.00;102493.41;5007034;28;20037;-73
2022/11/13 07:44:53;;;;;;;24.90;15.18;;;;;;;6.94;100.00;102488.19;5007490;28;20021;-70
2022/11/13 07:47:19;;;;;;;23.10;14.90;;;;;;;7.05;100.00;102489.16;5007561;28;20018;-72
2022/11/13 07:49:44;;;;;;;25.15;15.90;;;;;;;7.10;100.00;102488.34;5006637;28;20030;-68
2022/11/13 07:52:09;;;;;;;22.48;15.63;;;;;;;7.09;100.00;102495.31;5006427;28;20072;-71
2022/11/13 07:54:35;;;;;;;25.23;15.35;;;;;;;7.12;100.00;102494.44;5008062;28;20033;-70
2022/11/13 07:57:00;;;;;;;20.45;13.98;;;;;;;7.14;100.00;102495.34;5008081;28;20117;-70
2022/11/13 07:59:26;;;;;;;21.30;14.00;;;;;;;7.20;100.00;102492.78;5007879;28;20050;-68
2022/11/13 08:01:52;;;;;;;25.35;14.20;;;;;;;7.20;100.00;102498.03;5007665;28;20061;-71
2022/11/13 08:04:18;;;;;;;26.42;14.02;;;;;;;7.23;100.00;102502.41;5006203;28;20080;-72
2022/11/13 08:06:43;;;;;;;26.00;15.27;;;;;;;7.23;100.00;102508.53;5006983;28;20057;-69
2022/11/13 08:09:08;;;;;;;21.80;14.35;;;;;;;7.24;100.00;102502.41;5004355;28;20440;-73
2022/11/13 08:11:34;;;;;;;21.98;14.30;;;;;;;7.30;100.00;102502.47;5007053;28;20056;-73
2022/11/13 08:14:00;;;;;;;22.45;14.45;;;;;;;7.33;100.00;102499.84;5005726;28;20022;-66
2022/11/13 08:16:25;;;;;;;19.45;14.02;;;;;;;7.38;100.00;102505.13;5006879;28;20026;-71
2022/11/13 08:18:51;;;;;;;21.08;14.38;;;;;;;7.45;100.00;102503.41;5004980;28;20033;-71
2022/11/13 08:21:16;;;;;;;22.98;13.70;;;;;;;7.51;100.00;102506.06;5006405;28;20035;-71
2022/11/13 08:23:42;;;;;;;22.67;14.25;;;;;;;7.59;100.00;102501.75;5005428;28;20021;-69
2022/11/13 08:26:08;;;;;;;18.85;13.70;;;;;;;7.68;100.00;102494.81;5005023;28;20060;-73
2022/11/13 08:28:34;;;;;;;22.42;13.50;;;;;;;7.80;100.00;102497.47;5005988;28;20064;-72
2022/11/13 08:31:00;;;;;;;21.17;14.10;;;;;;;7.89;100.00;102499.25;5005259;28;20414;-72
2022/11/13 08:33:26;;;;;;;21.88;14.23;;;;;;;7.98;100.00;102490.56;5006324;28;20423;-72
2022/11/13 08:35:55;;;;;;;19.63;14.40;;;;;;;8.17;100.00;102493.22;5007873;28;20081;-71
2022/11/13 08:38:21;;;;;;;20.50;13.02;;;;;;;8.34;100.00;102482.78;5007152;28;20030;-73
2022/11/13 08:40:46;;;;;;;16.65;12.55;;;;;;;8.47;100.00;102486.28;5004074;28;20014;-71
2022/11/13 08:43:12;;;;;;;16.80;11.63;;;;;;;8.56;100.00;102483.72;5006066;28;20018;-73
2022/11/13 08:45:37;;;;;;;12.82;10.38;;;;;;;8.66;100.00;102481.06;5005748;28;20088;-73
2022/11/13 08:48:03;;;;;;;15.02;10.27;;;;;;;8.87;100.00;102477.59;5005929;28;20404;-69
2022/11/13 08:50:30;;;;;;;13.40;9.30;;;;;;;9.00;100.00;102481.06;5005481;28;20104;-75
2022/11/13 08:52:57;;;;;;;13.50;9.18;;;;;;;9.04;100.00;102469.69;5005357;28;20018;-74
2022/11/13 08:55:22;;;;;;;11.07;9.35;;;;;;;9.07;100.00;102469.69;5005153;28;20017;-75
2022/11/13 08:57:48;;;;;;;13.88;9.07;;;;;;;9.21;100.00;102463.50;5005896;28;20656;-71
2022/11/13 09:00:14;;;;;;;13.07;8.80;;;;;;;9.18;100.00;102464.41;5004904;28;20030;-72
2022/11/13 09:02:39;;;;;;;10.65;8.32;;;;;;;9.26;100.00;102461.75;5006066;28;20022;-72
2022/11/13 09:05:05;;;;;;;11.57;8.23;;;;;;;9.34;100.00;102459.13;5005123;28;20452;-68
2022/11/13 09:07:30;;;;;;;11.02;8.18;;;;;;;9.37;100.00;102464.38;5005905;28;20117;-71
2022/11/13 09:09:56;;;;;;;12.93;7.95;;;;;;;9.47;100.00;102454.69;5005758;28;20018;-69
2022/11/13 09:12:21;;;;;;;11.60;8.15;;;;;;;9.61;100.00;102449.38;5006472;28;20058;-68
2022/11/13 09:14:46;;;;;;;12.95;8.00;;;;;;;9.63;100.00;102446.75;5005814;28;20076;-70
2022/11/13 09:17:12;;;;;;;8.70;7.30;;;;;;;9.67;100.00;102452.00;5005925;28;20025;-69
2022/11/13 09:19:37;;;;;;;9.40;7.60;;;;;;;9.74;100.00;102439.66;5005417;28;20037;-69
2022/11/13 09:22:02;;;;;;;11.52;7.20;;;;;;;9.80;100.00;102437.00;5005629;28;20029;-69
2022/11/13 09:24:28;;;;;;;10.82;6.90;;;;;;;9.89;100.00;102443.09;5006023;28;20026;-72
2022/11/13 09:26:53;;;;;;;10.07;6.85;;;;;;;9.93;100.00;102443.06;5004892;28;20030;-72
2022/11/13 09:29:18;;;;;;;10.00;7.03;;;;;;;10.02;100.00;102436.03;5020113;28;20104;-72
2022/11/13 09:31:44;;;;;;;12.35;7.30;;;;;;;10.04;100.00;102439.50;5006587;28;20029;-66
2022/11/13 09:34:09;;;;;;;12.90;7.18;;;;;;;10.08;100.00;102439.47;5009290;28;20101;-71
2022/11/13 09:36:35;;;;;;;9.95;7.28;;;;;;;10.12;100.00;102427.19;5009140;28;20072;-72
2022/11/13 09:39:01;;;;;;;8.10;6.85;;;;;;;10.19;100.00;102430.63;5008909;28;20030;-68
2022/11/13 09:41:30;;;;;;;9.15;7.45;;;;;;;10.26;100.00;102428.84;5007745;28;20049;-73
2022/11/13 09:44:00;;;;;;;9.98;7.57;;;;;;;10.27;100.00;102436.75;5008770;28;20030;-73
2022/11/13 09:46:35;;;;;;;9.85;7.07;;;;;;;10.34;100.00;102434.94;5009075;28;20025;-71
2022/11/13 09:49:08;;;;;;;9.15;6.57;;;;;;;10.40;100.00;102434.00;5007122;28;20484;-68
2022/11/13 09:51:38;;;;;;;10.15;7.30;;;;;;;10.41;100.00;102434.00;5008431;28;20026;-72
2022/11/13 09:54:13;;;;;;;8.60;6.60;;;;;;;10.48;100.00;102432.22;5006210;28;20025;-68
2022/11/13 09:56:42;;;;;;;10.82;7.22;;;;;;;10.55;100.00;102433.03;5006433;28;20427;-70
2022/11/13 09:59:26;;;;;;;9.38;7.18;;;;;;;10.63;100.00;102427.72;5007380;28;20033;-71
2022/11/13 10:02:15;;;;;;;10.73;6.55;;;;;;;10.68;100.00;102425.91;5006495;28;20057;-69
2022/11/13 10:04:52;;;;;;;;;;;;;;;10.83;100.00;102431.03;5007242;28;20038;-64
2022/11/13 10:07:20;;;;;;;10.75;7.03;;;;;;;10.87;100.00;102424.84;5008246;28;20395;-71
2022/11/13 10:10:35;;;;;;;9.65;6.35;;;;;;;10.95;100.00;102423.88;5006683;28;20033;-69
2022/11/13 10:13:01;;;;;;;9.77;7.20;;;;;;;11.02;100.00;102430.88;4995640;28;20046;-70
2022/11/13 10:15:26;;;;;;;11.98;6.88;;;;;;;10.97;100.00;102427.41;5008803;28;20030;-67
2022/11/13 10:17:55;;;;;;;10.55;6.90;;;;;;;11.09;100.00;102432.56;4990953;28;20049;-71
2022/11/13 10:20:30;;;;;;;9.75;7.05;;;;;;;11.18;98.97;102430.69;5004946;28;20428;-74
2022/11/13 10:23:21;;;;;;;12.65;7.70;;;;;;;11.20;98.36;102423.66;5005212;28;20031;-64
2022/11/13 10:25:47;;;;;;;7.70;6.32;;;;;;;11.25;98.56;102422.72;5006949;28;20477;-75
2022/11/13 10:28:21;;;;;;;8.02;7.00;;;;;;;11.38;97.88;102412.88;5008810;28;20045;-73
2022/11/13 10:30:46;;;;;;;9.98;6.47;;;;;;;11.41;98.15;102411.09;5008906;28;20033;-73
2022/11/13 10:33:16;;;;;;;9.93;7.38;;;;;;;11.39;97.87;102403.19;5009370;28;20030;-67
2022/11/13 10:36:03;;;;;;;8.52;6.75;;;;;;;11.43;96.97;102410.19;5009690;28;20026;-72
2022/11/13 10:38:41;;;;;;;8.35;6.40;;;;;;;11.51;97.13;102402.16;5019881;28;20030;-71
2022/11/13 10:41:11;;;;;;;11.13;7.53;;;;;;;11.64;95.59;102392.31;5008814;28;20113;-66
2022/11/13 10:43:50;;;;;;;10.00;7.43;;;;;;;11.64;95.33;102397.59;5009493;28;20029;-72
2022/11/13 10:46:20;;;;;;;9.52;6.57;;;;;;;11.72;96.02;102389.56;5008836;28;20038;-70
2022/11/13 10:48:45;;;;;;;8.02;6.50;;;;;;;11.88;nan;102387.59;5008084;28;20101;-66
2022/11/13 10:51:29;;;;;;;7.75;6.18;;;;;;;11.81;95.17;102383.28;5008387;28;20097;-69
2022/11/13 10:53:56;;;;;;;8.65;6.38;;;;;;;11.94;94.87;102381.34;5008404;28;20010;-71
2022/11/13 10:56:21;;;;;;;8.75;6.32;;;;;;;11.99;95.17;102380.38;5009395;28;20072;-68
2022/11/13 10:59:10;;;;;;;9.05;6.50;;;;;;;12.12;93.32;102375.81;5008650;28;20493;-69
2022/11/13 11:01:35;;;;;;;9.60;5.78;;;;;;;12.09;93.66;102378.50;5007288;28;20022;-66
2022/11/13 11:04:06;;;;;;;8.15;5.85;;;;;;;12.19;93.97;102378.38;5004945;28;20050;-66
2022/11/13 11:06:36;;;;;;;8.48;6.35;;;;;;;12.25;92.93;102367.66;5008112;28;20476;-66
2022/11/13 11:09:23;;;;;;;7.47;5.82;;;;;;;12.33;92.73;102365.78;5008462;28;20083;-67
2022/11/13 11:12:19;;;;;;;8.85;6.28;;;;;;;12.31;90.33;102364.06;5009244;28;20092;-66
2022/11/13 11:15:00;;;;;;;6.20;5.40;;;;;;;12.43;90.26;102357.72;5004925;28;20034;-65